createdAt,value
2022-11-16T00:01:49.418Z,16.89
2022-11-16T00:04:16.807Z,16.93
2022-11-16T00:06:43.932Z,16.90
2022-11-16T00:09:11.897Z,16.87
2022-11-16T00:11:39.283Z,16.85
2022-11-16T00:14:07.987Z,16.85
2022-11-16T00:16:35.169Z,16.75
2022-11-16T00:19:05.480Z,16.76
2022-11-16T00:21:33.329Z,16.75
2022-11-16T00:24:00.898Z,16.72
2022-11-16T00:26:28.844Z,16.71
2022-11-16T00:28:56.261Z,16.59
2022-11-16T00:31:25.105Z,16.63
2022-11-16T00:33:52.336Z,16.53
2022-11-16T00:36:20.264Z,16.49
2022-11-16T00:38:51.452Z,16.40
2022-11-16T00:41:19.461Z,16.38
2022-11-16T00:43:46.884Z,16.35
2022-11-16T00:46:14.299Z,16.38
2022-11-16T00:48:42.597Z,16.44
2022-11-16T00:51:09.859Z,16.40
2022-11-16T00:53:37.145Z,16.31
2022-11-16T00:56:05.347Z,16.34
2022-11-16T00:58:37.958Z,16.35
2022-11-16T01:01:09.773Z,16.34
2022-11-16T01:03:37.571Z,16.29
2022-11-16T01:06:09.509Z,16.26
2022-11-16T01:08:39.155Z,16.26
2022-11-16T01:11:08.353Z,16.21
2022-11-16T01:13:35.347Z,16.17
2022-11-16T01:16:02.770Z,16.14
2022-11-16T01:18:29.763Z,16.22
2022-11-16T01:20:57.412Z,16.17
2022-11-16T01:26:17.911Z,16.10
2022-11-16T01:28:45.407Z,16.01
2022-11-16T01:31:13.680Z,16.07
2022-11-16T01:33:41.939Z,16.11
2022-11-16T01:36:17.375Z,16.12
2022-11-16T01:38:47.828Z,15.90
2022-11-16T01:41:21.439Z,15.79
2022-11-16T01:43:57.831Z,15.80
2022-11-16T01:46:30.578Z,15.89
2022-11-16T01:49:04.060Z,15.96
2022-11-16T01:51:33.084Z,15.91
2022-11-16T01:54:06.174Z,15.97
2022-11-16T01:56:37.141Z,15.97
2022-11-16T01:59:15.124Z,15.93
2022-11-16T02:01:42.413Z,16.00
2022-11-16T02:04:11.370Z,16.14
2022-11-16T02:06:58.956Z,16.15
2022-11-16T02:09:53.594Z,16.17
2022-11-16T02:12:55.812Z,16.15
2022-11-16T02:15:37.857Z,16.04
2022-11-16T02:18:30.145Z,15.93
2022-11-16T02:21:15.746Z,15.97
2022-11-16T02:24:23.307Z,16.05
2022-11-16T02:27:44.083Z,15.98
2022-11-16T02:30:14.224Z,16.01
2022-11-16T02:32:52.149Z,15.96
2022-11-16T02:35:26.108Z,15.90
2022-11-16T02:38:02.089Z,15.87
2022-11-16T02:40:32.387Z,15.93
2022-11-16T02:43:06.741Z,15.98
2022-11-16T02:45:40.515Z,15.97
2022-11-16T02:48:15.043Z,15.90
2022-11-16T02:50:43.893Z,15.77
2022-11-16T02:53:10.917Z,15.84
2022-11-16T02:55:39.401Z,15.93
2022-11-16T02:58:12.645Z,15.94
2022-11-16T03:00:51.253Z,15.86
2022-11-16T03:03:31.444Z,15.79
2022-11-16T03:06:07.413Z,15.87
2022-11-16T03:08:39.788Z,15.90
2022-11-16T03:11:12.615Z,15.84
2022-11-16T03:13:41.622Z,15.87
2022-11-16T03:16:17.217Z,15.94
2022-11-16T03:18:47.073Z,15.94
2022-11-16T03:21:24.639Z,15.91
2022-11-16T03:23:52.388Z,15.86
2022-11-16T03:26:26.226Z,15.81
2022-11-16T03:29:02.649Z,15.76
2022-11-16T03:31:48.032Z,15.76
2022-11-16T03:34:25.773Z,15.77
2022-11-16T03:36:58.766Z,15.81
2022-11-16T03:39:31.826Z,15.74
2022-11-16T03:42:04.089Z,15.70
2022-11-16T03:44:34.941Z,15.69
2022-11-16T03:47:03.822Z,15.69
2022-11-16T03:49:31.392Z,15.70
2022-11-16T03:51:59.026Z,15.63
2022-11-16T03:54:26.613Z,15.70
2022-11-16T03:59:46.260Z,15.66
2022-11-16T04:02:14.779Z,15.57
2022-11-16T04:04:43.083Z,15.61
2022-11-16T04:07:10.596Z,15.73
2022-11-16T04:09:37.703Z,15.73
2022-11-16T04:12:08.449Z,15.71
2022-11-16T04:14:37.237Z,15.67
2022-11-16T04:17:11.757Z,15.73
2022-11-16T04:19:40.738Z,15.74
2022-11-16T04:22:17.540Z,15.80
2022-11-16T04:24:50.619Z,15.69
2022-11-16T04:27:26.569Z,15.80
2022-11-16T04:29:57.812Z,15.83
2022-11-16T04:32:26.087Z,15.81
2022-11-16T04:34:56.645Z,15.90
2022-11-16T04:37:24.838Z,15.89
2022-11-16T04:39:52.503Z,15.90
2022-11-16T04:42:21.344Z,15.71
2022-11-16T04:44:51.397Z,15.59
2022-11-16T04:47:18.494Z,15.50
2022-11-16T04:49:47.230Z,15.43
2022-11-16T04:52:15.895Z,15.44
2022-11-16T04:54:43.752Z,15.32
2022-11-16T05:00:04.413Z,15.13
2022-11-16T05:02:33.894Z,15.13
2022-11-16T05:05:01.714Z,15.16
2022-11-16T05:07:31.321Z,15.20
2022-11-16T05:10:11.018Z,15.13
2022-11-16T05:12:38.911Z,14.99
2022-11-16T05:15:10.171Z,15.01
2022-11-16T05:17:37.318Z,15.02
2022-11-16T05:20:10.841Z,15.05
2022-11-16T05:22:54.576Z,14.98
2022-11-16T05:25:23.028Z,14.92
2022-11-16T05:30:45.491Z,14.99
2022-11-16T05:33:15.000Z,15.05
2022-11-16T05:35:45.644Z,15.03
2022-11-16T05:38:15.429Z,14.98
2022-11-16T05:40:46.914Z,15.01
2022-11-16T05:43:14.651Z,15.08
2022-11-16T05:45:51.246Z,15.06
2022-11-16T05:48:18.884Z,15.05
2022-11-16T05:50:46.090Z,15.15
2022-11-16T05:53:22.643Z,15.03
2022-11-16T05:55:49.819Z,15.09
2022-11-16T05:58:18.971Z,15.01
2022-11-16T06:00:47.157Z,15.08
2022-11-16T06:03:14.989Z,15.15
2022-11-16T06:05:42.391Z,15.23
2022-11-16T06:08:12.311Z,15.23
2022-11-16T06:10:40.722Z,15.30
2022-11-16T06:13:08.487Z,15.30
2022-11-16T06:15:37.894Z,15.35
2022-11-16T06:18:07.208Z,15.42
2022-11-16T06:20:37.936Z,15.50
2022-11-16T06:23:04.962Z,15.44
2022-11-16T06:25:32.869Z,15.54
2022-11-16T06:28:07.533Z,15.54
2022-11-16T06:30:35.669Z,15.52
2022-11-16T06:33:04.254Z,15.60
2022-11-16T06:35:31.526Z,15.67
2022-11-16T06:37:58.550Z,15.70
2022-11-16T06:40:26.192Z,15.77
2022-11-16T06:42:53.560Z,15.67
2022-11-16T06:45:24.036Z,15.57
2022-11-16T06:47:55.288Z,15.49
2022-11-16T06:50:22.532Z,15.47
2022-11-16T06:52:50.796Z,15.49
2022-11-16T06:55:19.130Z,15.56
2022-11-16T06:57:47.688Z,15.52
2022-11-16T07:00:17.328Z,15.56
2022-11-16T07:02:48.062Z,15.59
2022-11-16T07:05:18.130Z,15.49
2022-11-16T07:07:46.625Z,15.59
2022-11-16T07:10:14.237Z,15.60
2022-11-16T07:12:42.452Z,15.64
2022-11-16T07:15:10.799Z,15.60
2022-11-16T07:17:41.019Z,15.57
2022-11-16T07:20:10.127Z,15.52
2022-11-16T07:22:37.592Z,15.46
2022-11-16T07:25:06.049Z,15.30
2022-11-16T07:27:34.409Z,15.18
2022-11-16T07:30:01.458Z,15.22
2022-11-16T07:32:44.741Z,15.19
2022-11-16T07:35:36.446Z,15.20
2022-11-16T07:38:07.093Z,15.11
2022-11-16T07:40:34.439Z,15.05
2022-11-16T07:43:04.960Z,15.12
2022-11-16T07:45:38.424Z,15.16
2022-11-16T07:48:08.100Z,15.36
2022-11-16T07:51:01.101Z,15.44
2022-11-16T07:53:30.789Z,15.54
2022-11-16T07:55:57.847Z,15.47
2022-11-16T07:58:29.335Z,15.40
2022-11-16T08:03:55.131Z,15.42
2022-11-16T08:06:28.053Z,15.39
2022-11-16T08:08:58.648Z,15.47
2022-11-16T08:11:26.651Z,15.52
2022-11-16T08:13:54.067Z,15.56
2022-11-16T08:16:22.883Z,15.53
2022-11-16T08:18:57.246Z,15.44
2022-11-16T08:21:29.374Z,15.42
2022-11-16T08:23:58.676Z,15.36
2022-11-16T08:26:27.122Z,15.19
2022-11-16T08:28:59.490Z,15.30
2022-11-16T08:31:30.720Z,15.29
2022-11-16T08:34:07.310Z,15.28
2022-11-16T08:36:37.083Z,15.22
2022-11-16T08:39:08.924Z,15.20
2022-11-16T08:41:39.253Z,15.09
2022-11-16T08:44:08.157Z,15.11
2022-11-16T08:46:38.391Z,14.91
2022-11-16T08:49:24.814Z,14.91
2022-11-16T08:51:53.955Z,15.18
2022-11-16T08:54:21.562Z,15.03
2022-11-16T08:56:49.138Z,15.13
2022-11-16T08:59:17.743Z,15.25
2022-11-16T09:01:49.223Z,15.19
2022-11-16T09:04:16.221Z,15.33
2022-11-16T09:06:43.707Z,15.32
2022-11-16T09:09:12.177Z,15.12
2022-11-16T09:11:39.168Z,15.25
2022-11-16T09:14:06.268Z,15.30
2022-11-16T09:16:35.776Z,15.15
2022-11-16T09:19:02.738Z,15.25
2022-11-16T09:21:30.649Z,15.32
2022-11-16T09:23:58.241Z,15.25
2022-11-16T09:26:27.397Z,15.23
2022-11-16T09:28:56.348Z,15.35
2022-11-16T09:31:24.344Z,15.38
2022-11-16T09:33:51.589Z,15.38
2022-11-16T09:36:19.235Z,15.28
2022-11-16T09:39:17.825Z,15.30
2022-11-16T09:41:53.384Z,15.25
2022-11-16T09:44:44.726Z,15.32
2022-11-16T09:47:18.381Z,15.28
2022-11-16T09:49:51.838Z,15.20
2022-11-16T09:52:28.508Z,15.35
2022-11-16T09:54:59.512Z,15.50
2022-11-16T09:57:37.175Z,15.74
2022-11-16T10:00:15.207Z,15.90
2022-11-16T10:02:48.028Z,15.87
2022-11-16T10:05:23.073Z,15.90
2022-11-16T10:07:58.026Z,15.97
2022-11-16T10:10:37.952Z,15.87
2022-11-16T10:13:25.421Z,16.10
2022-11-16T10:16:07.427Z,16.04
2022-11-16T10:18:49.616Z,16.04
2022-11-16T10:21:36.321Z,16.02
2022-11-16T10:24:31.347Z,16.07
2022-11-16T10:27:29.719Z,16.00
2022-11-16T10:30:09.617Z,16.00
2022-11-16T10:32:44.247Z,15.94
2022-11-16T10:35:18.716Z,15.97
2022-11-16T10:37:50.135Z,15.91
2022-11-16T10:40:23.609Z,15.97
2022-11-16T10:43:05.559Z,16.07
2022-11-16T10:45:43.287Z,16.14
2022-11-16T10:48:29.274Z,16.24
2022-11-16T10:50:56.715Z,16.18
2022-11-16T10:53:29.657Z,16.29
2022-11-16T10:56:14.824Z,16.22
2022-11-16T10:58:55.316Z,16.12
2022-11-16T11:01:37.039Z,16.11
2022-11-16T11:04:21.666Z,16.10
2022-11-16T11:06:51.770Z,16.10
2022-11-16T11:09:29.032Z,16.08
2022-11-16T11:12:03.321Z,16.12
2022-11-16T11:14:30.274Z,16.18
2022-11-16T11:17:12.158Z,16.25
2022-11-16T11:19:39.305Z,16.20
2022-11-16T11:22:14.661Z,16.24
2022-11-16T11:24:48.065Z,16.18
2022-11-16T11:27:23.801Z,16.22
2022-11-16T11:29:54.519Z,16.14
2022-11-16T11:32:33.712Z,16.25
2022-11-16T11:35:02.979Z,16.29
2022-11-16T11:37:34.429Z,16.38
2022-11-16T11:40:22.662Z,16.40
2022-11-16T11:42:59.274Z,16.36
2022-11-16T11:45:38.669Z,16.44
2022-11-16T11:48:28.337Z,16.48
2022-11-16T11:51:04.615Z,16.35
2022-11-16T11:53:54.381Z,16.51
2022-11-16T11:56:21.585Z,16.47
2022-11-16T11:58:49.554Z,16.48
2022-11-16T12:02:06.063Z,16.47
2022-11-16T12:05:11.834Z,16.45
2022-11-16T12:08:21.184Z,16.41
2022-11-16T12:10:53.410Z,16.31
2022-11-16T12:13:45.121Z,16.17
2022-11-16T12:16:22.938Z,16.20
2022-11-16T12:19:15.245Z,16.25
2022-11-16T12:22:04.345Z,16.18
2022-11-16T12:24:54.718Z,16.18
2022-11-16T12:27:36.176Z,16.24
2022-11-16T12:30:11.137Z,16.34
2022-11-16T12:32:54.987Z,16.41
2022-11-16T12:35:41.536Z,16.21
2022-11-16T12:38:38.930Z,16.22
2022-11-16T12:41:38.100Z,16.34
2022-11-16T12:44:10.880Z,16.18
2022-11-16T12:46:50.702Z,16.08
2022-11-16T12:50:03.000Z,16.05
2022-11-16T12:57:04.908Z,16.01
2022-11-16T13:03:58.867Z,15.69
2022-11-16T13:06:32.553Z,15.63
2022-11-16T13:09:08.021Z,15.77
2022-11-16T13:11:42.333Z,15.81
2022-11-16T13:14:16.897Z,15.93
2022-11-16T13:16:46.257Z,16.04
2022-11-16T13:19:16.426Z,16.02
2022-11-16T13:21:55.695Z,16.20
2022-11-16T13:24:50.098Z,16.34
2022-11-16T13:27:38.110Z,16.52
2022-11-16T13:30:18.008Z,16.52
2022-11-16T13:33:07.416Z,16.49
2022-11-16T13:35:38.106Z,16.40
2022-11-16T13:38:12.450Z,16.36
2022-11-16T13:40:40.765Z,16.38
2022-11-16T13:43:19.787Z,16.41
2022-11-16T13:45:57.269Z,16.15
2022-11-16T13:48:30.334Z,16.22
2022-11-16T13:51:01.416Z,16.28
2022-11-16T13:56:28.541Z,16.24
2022-11-16T13:58:58.893Z,16.29
2022-11-16T14:01:56.633Z,16.31
2022-11-16T14:04:40.701Z,16.18
2022-11-16T14:07:31.408Z,16.14
2022-11-16T14:09:58.813Z,16.08
2022-11-16T14:12:56.011Z,16.14
2022-11-16T14:15:28.677Z,16.07
2022-11-16T14:18:01.038Z,16.04
2022-11-16T14:20:43.924Z,15.98
2022-11-16T14:23:37.259Z,16.10
2022-11-16T14:26:16.801Z,16.08
2022-11-16T14:29:22.614Z,16.15
2022-11-16T14:31:55.166Z,15.93
2022-11-16T14:34:30.503Z,15.94
2022-11-16T14:37:00.252Z,15.86
2022-11-16T14:39:33.617Z,15.81
2022-11-16T14:42:05.479Z,15.84
2022-11-16T14:44:42.764Z,15.87
2022-11-16T14:47:24.085Z,15.97
2022-11-16T14:49:55.203Z,15.98
2022-11-16T14:52:35.325Z,16.08
2022-11-16T14:55:08.841Z,16.02
2022-11-16T14:57:36.141Z,15.93
2022-11-16T15:00:18.708Z,15.86
2022-11-16T15:02:51.694Z,15.77
2022-11-16T15:05:23.600Z,15.76
2022-11-16T15:07:53.067Z,15.77
2022-11-16T15:10:24.241Z,15.79
2022-11-16T15:12:54.167Z,15.67
2022-11-16T15:15:25.700Z,15.67
2022-11-16T15:18:11.365Z,15.69
2022-11-16T15:20:48.104Z,15.57
2022-11-16T15:23:17.570Z,15.50
2022-11-16T15:25:51.995Z,15.54
2022-11-16T15:28:23.594Z,15.35
2022-11-16T15:30:54.279Z,15.46
2022-11-16T15:33:27.523Z,15.38
2022-11-16T15:35:55.371Z,15.44
2022-11-16T15:38:26.364Z,15.40
2022-11-16T15:40:55.844Z,15.40
2022-11-16T15:43:28.549Z,15.52
2022-11-16T15:45:56.967Z,15.50
2022-11-16T15:48:28.039Z,15.42
2022-11-16T15:51:04.073Z,15.47
2022-11-16T15:53:39.136Z,15.39
2022-11-16T15:56:12.883Z,15.30
2022-11-16T15:58:42.262Z,15.42
2022-11-16T16:01:14.796Z,15.53
2022-11-16T16:03:58.594Z,15.59
2022-11-16T16:06:48.630Z,15.49
2022-11-16T16:09:24.802Z,15.53
2022-11-16T16:11:53.633Z,15.43
2022-11-16T16:14:27.647Z,15.46
2022-11-16T16:16:59.645Z,15.42
2022-11-16T16:19:37.324Z,15.50
2022-11-16T16:22:13.945Z,15.50
2022-11-16T16:24:44.028Z,15.53
2022-11-16T16:27:17.404Z,15.50
2022-11-16T16:29:46.027Z,15.46
2022-11-16T16:32:23.122Z,15.46
2022-11-16T16:34:51.791Z,15.42
2022-11-16T16:37:18.947Z,15.33
2022-11-16T16:39:47.941Z,15.35
2022-11-16T16:45:30.879Z,15.16
2022-11-16T16:50:50.527Z,15.01
2022-11-16T16:53:18.233Z,15.06
2022-11-16T16:55:45.956Z,15.12
2022-11-16T16:58:13.929Z,15.15
2022-11-16T17:00:41.883Z,15.13
2022-11-16T17:03:09.468Z,15.15
2022-11-16T17:05:40.045Z,15.05
2022-11-16T17:08:11.585Z,15.05
2022-11-16T17:10:40.413Z,14.98
2022-11-16T17:13:20.123Z,15.09
2022-11-16T17:15:48.715Z,14.92
2022-11-16T17:18:25.180Z,14.85
2022-11-16T17:21:02.362Z,14.91
2022-11-16T17:23:31.277Z,14.96
2022-11-16T17:25:59.626Z,14.96
2022-11-16T17:28:26.970Z,15.08
2022-11-16T17:30:54.038Z,15.12
2022-11-16T17:33:20.916Z,15.23
2022-11-16T17:35:55.767Z,15.20
2022-11-16T17:38:22.752Z,15.06
2022-11-16T17:40:51.585Z,15.13
2022-11-16T17:43:18.566Z,15.15
2022-11-16T17:45:45.729Z,15.13
2022-11-16T17:48:12.573Z,15.08
2022-11-16T17:50:40.019Z,14.93
2022-11-16T17:53:07.066Z,15.08
2022-11-16T17:55:34.456Z,15.18
2022-11-16T17:58:02.795Z,15.01
2022-11-16T18:00:29.966Z,15.01
2022-11-16T18:02:57.114Z,15.08
2022-11-16T18:05:24.482Z,15.15
2022-11-16T18:07:51.510Z,15.12
2022-11-16T18:10:19.539Z,15.11
2022-11-16T18:12:46.486Z,15.18
2022-11-16T18:15:27.887Z,15.16
2022-11-16T18:17:56.426Z,14.91
2022-11-16T18:20:23.352Z,14.91
2022-11-16T18:22:50.364Z,15.05
2022-11-16T18:25:17.645Z,15.11
2022-11-16T18:27:50.550Z,15.22
2022-11-16T18:30:19.045Z,15.23
2022-11-16T18:32:46.081Z,15.32
2022-11-16T18:35:13.476Z,15.36
2022-11-16T18:37:40.833Z,15.35
2022-11-16T18:40:09.666Z,15.40
2022-11-16T18:42:37.560Z,15.32
2022-11-16T18:45:06.885Z,15.33
2022-11-16T18:47:35.477Z,15.23
2022-11-16T18:50:04.471Z,15.20
2022-11-16T18:52:31.643Z,15.11
2022-11-16T18:54:58.602Z,15.13
2022-11-16T18:57:27.401Z,15.15
2022-11-16T18:59:54.871Z,15.20
2022-11-16T19:02:24.045Z,15.19
2022-11-16T19:04:52.521Z,15.19
2022-11-16T19:07:19.653Z,15.18
2022-11-16T19:09:46.734Z,15.12
2022-11-16T19:12:13.775Z,15.15
2022-11-16T19:14:40.863Z,15.16
2022-11-16T19:17:08.192Z,15.18
2022-11-16T19:19:35.154Z,15.20
2022-11-16T19:22:03.734Z,15.11
2022-11-16T19:24:30.665Z,15.13
2022-11-16T19:26:57.804Z,15.13
2022-11-16T19:29:24.846Z,15.23
2022-11-16T19:31:51.940Z,15.22
2022-11-16T19:34:18.880Z,15.19
2022-11-16T19:36:45.833Z,15.11
2022-11-16T19:39:14.840Z,15.08
2022-11-16T19:41:41.781Z,15.01
2022-11-16T19:44:08.963Z,14.93
2022-11-16T19:46:35.905Z,14.96
2022-11-16T19:49:03.565Z,15.06
2022-11-16T19:51:32.757Z,14.92
2022-11-16T19:54:01.168Z,15.01
2022-11-16T19:56:31.683Z,14.87
2022-11-16T19:58:58.715Z,14.72
2022-11-16T20:01:28.184Z,14.74
2022-11-16T20:03:57.633Z,14.79
2022-11-16T20:06:26.964Z,14.78
2022-11-16T20:08:56.751Z,14.77
2022-11-16T20:11:25.848Z,14.78
2022-11-16T20:13:58.983Z,14.87
2022-11-16T20:16:32.811Z,14.81
2022-11-16T20:19:04.996Z,14.77
2022-11-16T20:21:35.495Z,14.67
2022-11-16T20:24:07.122Z,14.75
2022-11-16T20:26:36.678Z,14.63
2022-11-16T20:29:05.226Z,14.58
2022-11-16T20:31:33.663Z,14.63
2022-11-16T20:34:03.064Z,14.63
2022-11-16T20:36:32.972Z,14.63
2022-11-16T20:39:01.146Z,14.51
2022-11-16T20:41:30.549Z,14.54
2022-11-16T20:43:59.327Z,14.38
2022-11-16T20:46:31.236Z,14.44
2022-11-16T20:48:58.850Z,14.30
2022-11-16T20:51:25.885Z,14.20
2022-11-16T20:53:52.910Z,14.34
2022-11-16T20:56:21.010Z,14.37
2022-11-16T20:58:49.224Z,14.36
2022-11-16T21:01:20.040Z,14.36
2022-11-16T21:03:48.667Z,14.34
2022-11-16T21:06:15.905Z,14.34
2022-11-16T21:08:42.900Z,14.24
2022-11-16T21:11:11.126Z,14.38
2022-11-16T21:13:38.392Z,14.38
2022-11-16T21:16:08.272Z,14.51
2022-11-16T21:18:39.944Z,14.42
2022-11-16T21:21:11.242Z,14.41
2022-11-16T21:23:40.800Z,14.16
2022-11-16T21:29:28.845Z,14.12
2022-11-16T21:31:55.795Z,14.10
2022-11-16T21:34:22.747Z,14.14
2022-11-16T21:36:51.053Z,14.12
2022-11-16T21:39:18.027Z,13.96
2022-11-16T21:41:45.134Z,13.97
2022-11-16T21:44:12.028Z,14.19
2022-11-16T21:46:38.965Z,13.97
2022-11-16T21:49:06.254Z,13.91
2022-11-16T21:51:35.382Z,13.99
2022-11-16T21:54:05.001Z,13.89
2022-11-16T21:56:33.866Z,13.82
2022-11-16T21:59:00.938Z,13.85
2022-11-16T22:01:28.090Z,14.02
2022-11-16T22:03:54.951Z,13.95
2022-11-16T22:06:22.020Z,13.90
2022-11-16T22:08:49.454Z,13.93
2022-11-16T22:11:18.397Z,13.95
2022-11-16T22:13:45.514Z,14.07
2022-11-16T22:16:14.105Z,14.12
2022-11-16T22:18:41.775Z,14.19
2022-11-16T22:21:09.750Z,14.13
2022-11-16T22:23:37.907Z,14.06
2022-11-16T22:26:07.936Z,14.03
2022-11-16T22:28:37.506Z,14.06
2022-11-16T22:31:06.882Z,14.06
2022-11-16T22:33:34.969Z,14.16
2022-11-16T22:36:03.315Z,14.00
2022-11-16T22:38:30.858Z,14.10
2022-11-16T22:40:58.050Z,14.07
2022-11-16T22:43:27.948Z,14.20
2022-11-16T22:45:58.606Z,14.24
2022-11-16T22:48:30.412Z,14.16
2022-11-16T22:51:06.759Z,14.00
2022-11-16T22:53:34.468Z,13.91
2022-11-16T22:56:10.360Z,13.91
2022-11-16T22:58:40.583Z,13.85
2022-11-16T23:01:09.538Z,13.85
2022-11-16T23:03:40.930Z,13.90
2022-11-16T23:06:08.646Z,13.95
2022-11-16T23:08:36.635Z,13.91
2022-11-16T23:11:06.960Z,13.86
2022-11-16T23:13:34.290Z,13.89
2022-11-16T23:16:04.188Z,13.87
2022-11-16T23:18:35.936Z,13.93
2022-11-16T23:21:03.006Z,13.95
2022-11-16T23:23:30.057Z,13.85
2022-11-16T23:25:57.113Z,13.78
2022-11-16T23:28:24.668Z,13.85
2022-11-16T23:30:51.807Z,13.72
2022-11-16T23:33:18.890Z,13.78
2022-11-16T23:35:47.197Z,13.85
2022-11-16T23:38:14.023Z,13.86
2022-11-16T23:40:40.961Z,13.93
2022-11-16T23:43:10.322Z,13.79
2022-11-16T23:45:37.780Z,13.90
2022-11-16T23:48:06.168Z,14.00
2022-11-16T23:50:34.111Z,14.03
2022-11-16T23:53:03.473Z,13.99
2022-11-16T23:55:32.475Z,13.99
2022-11-16T23:57:59.662Z,14.06
